createdAt,value
2018-05-10T00:02:03.347Z,3.40
2018-05-10T00:04:31.842Z,3.00
2018-05-10T00:07:00.220Z,3.13
2018-05-10T00:09:28.681Z,3.47
2018-05-10T00:11:57.966Z,3.10
2018-05-10T00:14:27.310Z,3.50
2018-05-10T00:16:55.804Z,3.20
2018-05-10T00:19:25.050Z,3.57
2018-05-10T00:21:54.512Z,3.70
2018-05-10T00:24:23.055Z,3.47
2018-05-10T00:26:51.749Z,3.93
2018-05-10T00:29:20.243Z,4.17
2018-05-10T00:31:48.768Z,4.10
2018-05-10T00:34:17.285Z,4.67
2018-05-10T00:36:45.801Z,4.40
2018-05-10T00:39:14.321Z,4.70
2018-05-10T00:41:43.590Z,5.00
2018-05-10T00:44:12.121Z,5.00
2018-05-10T00:46:40.629Z,4.93
2018-05-10T00:49:09.140Z,4.70
2018-05-10T00:54:10.280Z,5.17
2018-05-10T00:56:38.768Z,4.77
2018-05-10T00:59:07.296Z,4.50
2018-05-10T01:01:36.932Z,4.03
2018-05-10T01:04:06.187Z,5.20
2018-05-10T01:06:34.674Z,5.40
2018-05-10T01:09:03.367Z,4.50
2018-05-10T01:11:31.919Z,4.77
2018-05-10T01:14:00.417Z,4.40
2018-05-10T01:16:28.936Z,4.10
2018-05-10T01:18:57.498Z,4.20
2018-05-10T01:21:26.026Z,4.47
2018-05-10T01:23:55.310Z,4.30
2018-05-10T01:26:23.818Z,4.10
2018-05-10T01:28:52.333Z,4.00
2018-05-10T01:31:20.815Z,3.90
2018-05-10T01:33:49.308Z,3.97
2018-05-10T01:36:21.957Z,3.70
2018-05-10T01:38:50.217Z,4.57
2018-05-10T01:41:18.749Z,8.70
2018-05-10T01:43:47.229Z,5.80
2018-05-10T01:46:15.172Z,6.40
2018-05-10T01:48:43.714Z,5.23
2018-05-10T01:51:12.203Z,5.20
2018-05-10T01:53:41.510Z,4.70
2018-05-10T01:56:10.031Z,4.40
2018-05-10T01:58:39.309Z,4.27
2018-05-10T02:01:07.847Z,4.60
2018-05-10T02:03:36.342Z,4.83
2018-05-10T02:06:07.349Z,5.40
2018-05-10T02:08:35.901Z,5.40
2018-05-10T02:11:04.423Z,5.00
2018-05-10T02:13:32.913Z,5.63
2018-05-10T02:16:01.400Z,5.70
2018-05-10T02:18:29.900Z,5.83
2018-05-10T02:20:58.395Z,5.47
2018-05-10T02:23:27.680Z,5.40
2018-05-10T02:25:55.859Z,5.10
2018-05-10T02:28:25.115Z,5.10
2018-05-10T02:30:56.642Z,5.13
2018-05-10T02:33:25.136Z,4.60
2018-05-10T02:35:53.692Z,4.70
2018-05-10T02:38:22.188Z,4.60
2018-05-10T02:40:50.699Z,4.33
2018-05-10T02:43:19.215Z,4.50
2018-05-10T02:45:47.723Z,4.50
2018-05-10T02:48:16.298Z,3.90
2018-05-10T02:50:44.848Z,4.50
2018-05-10T02:53:13.376Z,4.47
2018-05-10T02:55:41.872Z,4.07
2018-05-10T02:58:10.434Z,3.60
2018-05-10T03:00:39.177Z,3.90
2018-05-10T03:03:07.692Z,4.07
2018-05-10T03:05:36.198Z,4.57
2018-05-10T03:08:04.730Z,4.07
2018-05-10T03:10:33.996Z,4.37
2018-05-10T03:13:02.516Z,3.93
2018-05-10T03:15:31.024Z,4.10
2018-05-10T03:17:59.540Z,4.00
2018-05-10T03:20:28.076Z,3.90
2018-05-10T03:22:56.584Z,6.60
2018-05-10T03:25:24.890Z,10.53
2018-05-10T03:27:53.407Z,8.00
2018-05-10T03:30:21.920Z,7.07
2018-05-10T03:32:51.226Z,5.33
2018-05-10T03:35:19.720Z,5.20
2018-05-10T03:37:48.205Z,4.67
2018-05-10T03:40:16.745Z,5.10
2018-05-10T03:42:45.249Z,7.33
2018-05-10T03:45:13.770Z,6.40
2018-05-10T03:47:42.338Z,7.30
2018-05-10T03:50:10.980Z,6.83
2018-05-10T03:52:39.589Z,6.33
2018-05-10T03:55:08.189Z,6.27
2018-05-10T03:57:36.683Z,6.53
2018-05-10T04:00:07.029Z,7.53
2018-05-10T04:02:56.670Z,7.03
2018-05-10T04:08:38.267Z,7.80
2018-05-10T04:11:25.875Z,7.27
2018-05-10T04:13:55.077Z,8.70
2018-05-10T04:16:24.302Z,8.67
2018-05-10T04:18:52.732Z,8.73
2018-05-10T04:21:21.162Z,8.67
2018-05-10T04:23:49.608Z,8.30
2018-05-10T04:26:18.805Z,7.50
2018-05-10T04:28:48.018Z,8.50
2018-05-10T04:31:16.448Z,8.20
2018-05-10T04:33:44.886Z,7.67
2018-05-10T04:36:13.084Z,6.50
2018-05-10T04:38:41.305Z,5.50
2018-05-10T04:41:10.499Z,6.13
2018-05-10T04:43:40.688Z,5.80
2018-05-10T04:46:08.923Z,6.07
2018-05-10T04:48:38.335Z,5.40
2018-05-10T04:51:06.902Z,4.93
2018-05-10T04:53:37.084Z,5.53
2018-05-10T04:56:05.503Z,5.63
2018-05-10T04:58:33.997Z,5.63
2018-05-10T05:01:02.615Z,6.70
2018-05-10T05:03:32.072Z,7.17
2018-05-10T05:06:00.660Z,6.30
2018-05-10T05:08:29.126Z,6.03
2018-05-10T05:10:57.614Z,5.80
2018-05-10T05:13:26.093Z,5.80
2018-05-10T05:15:54.557Z,5.50
2018-05-10T05:18:23.017Z,5.50
2018-05-10T05:20:52.211Z,5.10
2018-05-10T05:23:21.403Z,6.10
2018-05-10T05:25:50.644Z,5.47
2018-05-10T05:28:19.126Z,5.30
2018-05-10T05:30:47.588Z,5.27
2018-05-10T05:33:16.044Z,5.00
2018-05-10T05:35:44.200Z,4.60
2018-05-10T05:38:13.431Z,5.23
2018-05-10T05:40:41.893Z,4.30
2018-05-10T05:43:11.166Z,4.00
2018-05-10T05:45:40.497Z,5.30
2018-05-10T05:48:08.960Z,4.23
2018-05-10T05:50:38.197Z,4.40
2018-05-10T05:53:06.677Z,4.57
2018-05-10T05:55:35.138Z,4.30
2018-05-10T05:58:03.584Z,4.60
2018-05-10T06:03:47.096Z,4.40
2018-05-10T06:06:15.625Z,4.40
2018-05-10T06:08:44.179Z,4.27
2018-05-10T06:11:12.864Z,5.27
2018-05-10T06:13:41.408Z,4.87
2018-05-10T06:16:09.902Z,4.90
2018-05-10T06:18:38.397Z,4.73
2018-05-10T06:21:07.160Z,5.33
2018-05-10T06:23:35.707Z,4.73
2018-05-10T06:26:04.212Z,5.60
2018-05-10T06:28:33.478Z,5.10
2018-05-10T06:31:02.005Z,4.83
2018-05-10T06:33:30.529Z,5.10
2018-05-10T06:35:59.031Z,6.10
2018-05-10T06:38:27.545Z,5.57
2018-05-10T06:40:56.057Z,7.20
2018-05-10T06:43:24.543Z,5.67
2018-05-10T06:45:54.422Z,5.70
2018-05-10T06:48:22.943Z,5.77
2018-05-10T06:50:51.436Z,6.17
2018-05-10T06:53:19.909Z,5.60
2018-05-10T06:55:48.413Z,5.60
2018-05-10T06:58:16.929Z,5.37
2018-05-10T07:00:46.178Z,4.97
2018-05-10T07:03:14.713Z,4.70
2018-05-10T07:05:43.962Z,4.50
2018-05-10T07:08:13.304Z,4.87
2018-05-10T07:10:41.799Z,5.47
2018-05-10T07:13:10.324Z,4.80
2018-05-10T07:15:38.823Z,4.40
2018-05-10T07:21:08.112Z,5.20
2018-05-10T07:23:36.851Z,5.00
2018-05-10T07:26:05.373Z,4.70
2018-05-10T07:28:33.892Z,4.83
2018-05-10T07:31:03.161Z,4.87
2018-05-10T07:33:31.723Z,5.10
2018-05-10T07:36:00.981Z,5.10
2018-05-10T07:38:29.481Z,5.60
2018-05-10T07:40:58.052Z,5.97
2018-05-10T07:43:27.479Z,5.73
2018-05-10T07:45:55.764Z,5.90
2018-05-10T07:48:24.307Z,6.00
2018-05-10T07:50:53.641Z,5.57
2018-05-10T07:53:22.915Z,5.53
2018-05-10T07:55:51.420Z,6.20
2018-05-10T07:58:19.928Z,6.30
2018-05-10T08:00:48.459Z,6.00
2018-05-10T08:03:16.965Z,6.57
2018-05-10T08:05:45.443Z,6.00
2018-05-10T08:08:14.733Z,5.57
2018-05-10T08:10:44.001Z,5.93
2018-05-10T08:13:12.522Z,5.80
2018-05-10T08:15:41.999Z,6.47
2018-05-10T08:18:11.305Z,6.13
2018-05-10T08:20:39.825Z,5.80
2018-05-10T08:23:09.118Z,6.30
2018-05-10T08:25:37.637Z,6.40
2018-05-10T08:28:07.626Z,6.03
2018-05-10T08:30:37.238Z,6.47
2018-05-10T08:33:05.070Z,5.93
2018-05-10T08:35:33.577Z,6.07
2018-05-10T08:38:02.119Z,5.80
2018-05-10T08:40:30.638Z,6.53
2018-05-10T08:42:59.140Z,6.10
2018-05-10T08:45:27.642Z,6.13
2018-05-10T08:47:56.170Z,6.10
2018-05-10T08:50:24.707Z,5.83
2018-05-10T08:52:54.957Z,5.93
2018-05-10T08:55:23.478Z,6.40
2018-05-10T08:57:52.784Z,6.37
2018-05-10T09:00:21.293Z,7.00
2018-05-10T09:02:49.822Z,6.73
2018-05-10T09:05:19.093Z,7.43
2018-05-10T09:07:47.612Z,7.33
2018-05-10T09:10:16.132Z,6.80
2018-05-10T09:12:44.667Z,6.77
2018-05-10T09:15:13.175Z,6.40
2018-05-10T09:17:42.560Z,6.97
2018-05-10T09:20:11.095Z,6.70
2018-05-10T09:22:39.614Z,6.80
2018-05-10T09:25:08.181Z,6.73
2018-05-10T09:27:37.416Z,6.90
2018-05-10T09:30:05.943Z,6.90
2018-05-10T09:32:34.424Z,6.90
2018-05-10T09:35:02.935Z,6.70
2018-05-10T09:37:31.449Z,6.93
2018-05-10T09:39:59.996Z,7.03
2018-05-10T09:42:28.527Z,7.30
2018-05-10T09:44:57.055Z,7.20
2018-05-10T09:47:25.734Z,6.70
2018-05-10T09:49:54.277Z,7.57
2018-05-10T09:52:23.559Z,6.87
2018-05-10T09:54:52.065Z,7.27
2018-05-10T09:57:20.556Z,7.60
2018-05-10T09:59:49.140Z,7.50
2018-05-10T10:02:18.698Z,7.23
2018-05-10T10:04:48.112Z,7.60
2018-05-10T10:07:16.623Z,7.63
2018-05-10T10:09:46.029Z,7.97
2018-05-10T10:12:15.605Z,7.83
2018-05-10T10:14:45.061Z,7.90
2018-05-10T10:17:13.561Z,8.00
2018-05-10T10:19:42.084Z,8.43
2018-05-10T10:22:10.602Z,8.70
2018-05-10T10:24:39.145Z,8.33
2018-05-10T10:27:08.396Z,8.73
2018-05-10T10:29:36.617Z,9.10
2018-05-10T10:32:04.459Z,8.23
2018-05-10T10:34:33.768Z,9.10
2018-05-10T10:37:02.499Z,8.57
2018-05-10T10:39:31.778Z,8.00
2018-05-10T10:42:00.293Z,8.10
2018-05-10T10:44:28.842Z,8.57
2018-05-10T10:46:58.156Z,8.67
2018-05-10T10:49:26.665Z,7.97
2018-05-10T10:51:55.191Z,8.07
2018-05-10T10:54:23.742Z,7.70
2018-05-10T10:56:52.272Z,7.43
2018-05-10T10:59:20.802Z,8.40
2018-05-10T11:01:49.415Z,7.63
2018-05-10T11:04:18.062Z,7.60
2018-05-10T11:06:46.604Z,6.87
2018-05-10T11:09:15.161Z,6.30
2018-05-10T11:11:43.802Z,5.40
2018-05-10T11:14:12.322Z,5.40
2018-05-10T11:16:40.852Z,5.07
2018-05-10T11:19:09.377Z,4.70
2018-05-10T11:21:37.917Z,5.00
2018-05-10T11:24:06.446Z,4.83
2018-05-10T11:26:34.978Z,4.70
2018-05-10T11:29:03.525Z,4.50
2018-05-10T11:31:32.034Z,4.37
2018-05-10T11:34:00.536Z,4.03
2018-05-10T11:36:29.070Z,4.10
2018-05-10T11:38:57.606Z,4.43
2018-05-10T11:41:26.131Z,4.10
2018-05-10T11:43:55.411Z,3.90
2018-05-10T11:48:58.691Z,3.60
2018-05-10T11:51:27.206Z,3.60
2018-05-10T11:53:55.706Z,3.67
2018-05-10T11:56:24.191Z,4.03
2018-05-10T11:58:52.710Z,3.67
2018-05-10T12:01:20.917Z,3.40
2018-05-10T12:03:49.434Z,3.53
2018-05-10T12:06:17.928Z,3.83
2018-05-10T12:08:46.453Z,3.53
2018-05-10T12:11:14.993Z,4.10
2018-05-10T12:13:43.511Z,3.67
2018-05-10T12:16:12.036Z,3.70
2018-05-10T12:18:40.565Z,3.07
2018-05-10T12:21:09.070Z,3.30
2018-05-10T12:23:37.564Z,3.43
2018-05-10T12:26:05.737Z,3.10
2018-05-10T12:28:34.246Z,3.07
2018-05-10T12:31:02.848Z,3.30
2018-05-10T12:33:31.471Z,3.00
2018-05-10T12:36:00.031Z,2.97
2018-05-10T12:38:29.369Z,2.90
2018-05-10T12:40:58.748Z,2.50
2018-05-10T12:43:30.245Z,2.80
2018-05-10T12:48:32.044Z,3.00
2018-05-10T12:51:00.586Z,2.90
2018-05-10T12:53:29.080Z,2.70
2018-05-10T12:55:57.608Z,3.20
2018-05-10T12:58:26.118Z,3.00
2018-05-10T13:00:54.500Z,3.27
2018-05-10T13:03:23.134Z,2.90
2018-05-10T13:05:51.658Z,2.90
2018-05-10T13:08:20.212Z,3.10
2018-05-10T13:10:48.877Z,2.80
2018-05-10T13:13:17.514Z,3.00
2018-05-10T13:15:46.126Z,2.70
2018-05-10T13:18:15.386Z,2.87
2018-05-10T13:20:43.886Z,3.00
2018-05-10T13:23:33.129Z,3.47
2018-05-10T13:26:01.553Z,3.07
2018-05-10T13:28:30.760Z,2.80
2018-05-10T13:30:59.196Z,2.90
2018-05-10T13:33:27.618Z,2.80
2018-05-10T13:35:56.043Z,2.60
2018-05-10T13:38:24.542Z,2.80
2018-05-10T13:40:53.884Z,2.47
2018-05-10T13:43:22.316Z,2.80
2018-05-10T13:45:50.757Z,2.50
2018-05-10T13:48:19.176Z,2.73
2018-05-10T13:50:47.621Z,2.50
2018-05-10T13:53:16.035Z,2.23
2018-05-10T13:55:44.459Z,2.70
2018-05-10T13:58:12.892Z,3.50
2018-05-10T14:00:41.320Z,3.27
2018-05-10T14:03:09.431Z,2.83
2018-05-10T14:05:38.519Z,2.67
2018-05-10T14:08:08.092Z,2.30
2018-05-10T14:10:36.677Z,2.23
2018-05-10T14:13:05.151Z,2.27
2018-05-10T14:15:33.575Z,2.30
2018-05-10T14:18:02.081Z,2.30
2018-05-10T14:20:31.292Z,2.40
2018-05-10T14:22:59.731Z,1.93
2018-05-10T14:25:28.203Z,2.63
2018-05-10T14:27:56.443Z,2.43
2018-05-10T14:30:24.958Z,2.70
2018-05-10T14:32:54.324Z,2.07
2018-05-10T14:35:23.678Z,2.40
2018-05-10T14:37:52.310Z,2.50
2018-05-10T14:40:27.849Z,2.30
2018-05-10T14:42:57.851Z,2.20
2018-05-10T14:45:27.740Z,2.10
2018-05-10T14:47:57.195Z,2.07
2018-05-10T14:50:29.299Z,1.97
2018-05-10T14:52:58.627Z,2.10
2018-05-10T14:55:48.311Z,1.97
2018-05-10T15:00:54.897Z,2.00
2018-05-10T15:03:25.928Z,1.90
2018-05-10T15:05:57.110Z,2.10
2018-05-10T15:11:00.821Z,3.20
2018-05-10T15:13:32.642Z,5.03
2018-05-10T15:16:02.020Z,5.57
2018-05-10T15:18:32.475Z,8.70
2018-05-10T15:21:02.246Z,8.73
2018-05-10T15:23:32.311Z,9.80
2018-05-10T15:26:06.469Z,10.57
2018-05-10T15:28:34.876Z,10.00
2018-05-10T15:31:03.618Z,11.60
2018-05-10T15:33:32.813Z,11.60
2018-05-10T15:36:02.228Z,11.50
2018-05-10T15:38:30.746Z,11.60
2018-05-10T15:40:59.252Z,13.83
2018-05-10T15:43:27.835Z,13.40
2018-05-10T15:45:56.134Z,12.60
2018-05-10T15:48:24.652Z,11.03
2018-05-10T15:50:53.221Z,10.80
2018-05-10T15:53:21.728Z,10.47
2018-05-10T15:55:50.269Z,8.23
2018-05-10T15:58:18.799Z,7.40
2018-05-10T16:00:47.299Z,5.87
2018-05-10T16:03:15.799Z,5.23
2018-05-10T16:05:44.337Z,4.37
2018-05-10T16:08:12.838Z,4.13
2018-05-10T16:10:41.374Z,4.00
2018-05-10T16:13:09.919Z,4.17
2018-05-10T16:15:38.433Z,3.70
2018-05-10T16:18:06.998Z,3.40
2018-05-10T16:20:35.531Z,3.63
2018-05-10T16:23:04.833Z,3.83
2018-05-10T16:25:33.338Z,2.97
2018-05-10T16:28:01.858Z,3.30
2018-05-10T16:30:30.375Z,3.40
2018-05-10T16:32:58.888Z,3.20
2018-05-10T16:35:28.648Z,3.20
2018-05-10T16:37:57.154Z,4.40
2018-05-10T16:40:25.664Z,3.50
2018-05-10T16:42:54.187Z,3.93
2018-05-10T16:45:22.731Z,4.70
2018-05-10T16:47:51.250Z,5.07
2018-05-10T16:50:19.789Z,4.53
2018-05-10T16:52:48.310Z,3.43
2018-05-10T16:55:16.833Z,3.17
2018-05-10T16:57:45.344Z,3.20
2018-05-10T17:00:13.904Z,2.50
2018-05-10T17:02:43.227Z,2.67
2018-05-10T17:05:15.257Z,2.97
2018-05-10T17:07:43.798Z,2.50
2018-05-10T17:10:12.355Z,2.70
2018-05-10T17:12:41.634Z,2.33
2018-05-10T17:15:10.360Z,2.50
2018-05-10T17:17:39.227Z,2.20
2018-05-10T17:20:08.309Z,2.30
2018-05-10T17:22:36.881Z,2.50
2018-05-10T17:25:05.841Z,2.50
2018-05-10T17:27:35.176Z,2.00
2018-05-10T17:30:03.796Z,2.10
2018-05-10T17:32:32.314Z,2.30
2018-05-10T17:35:00.851Z,2.40
2018-05-10T17:37:29.385Z,2.70
2018-05-10T17:39:57.895Z,2.77
2018-05-10T17:42:27.714Z,2.83
2018-05-10T17:44:57.028Z,3.10
2018-05-10T17:47:26.393Z,3.00
2018-05-10T17:49:54.925Z,3.40
2018-05-10T17:52:23.430Z,3.70
2018-05-10T17:54:52.802Z,3.77
2018-05-10T17:57:21.324Z,3.70
2018-05-10T17:59:49.836Z,4.57
2018-05-10T18:02:18.367Z,4.20
2018-05-10T18:04:47.643Z,4.80
2018-05-10T18:07:16.147Z,4.47
2018-05-10T18:09:50.930Z,4.40
2018-05-10T18:12:19.298Z,4.50
2018-05-10T18:14:47.821Z,4.40
2018-05-10T18:17:16.345Z,4.27
2018-05-10T18:19:44.932Z,4.63
2018-05-10T18:22:13.625Z,4.70
2018-05-10T18:24:42.809Z,5.30
2018-05-10T18:27:11.287Z,5.47
2018-05-10T18:29:39.829Z,4.67
2018-05-10T18:32:08.542Z,5.00
2018-05-10T18:34:38.477Z,4.60
2018-05-10T18:37:07.786Z,4.07
2018-05-10T18:39:36.337Z,4.00
2018-05-10T18:42:04.852Z,4.37
2018-05-10T18:44:33.373Z,4.37
2018-05-10T18:47:01.903Z,3.80
2018-05-10T18:49:30.414Z,4.43
2018-05-10T18:51:58.944Z,4.20
2018-05-10T18:54:27.631Z,3.70
2018-05-10T18:56:56.214Z,4.30
2018-05-10T18:59:24.747Z,3.67
2018-05-10T19:01:53.337Z,4.17
2018-05-10T19:04:21.972Z,4.97
2018-05-10T19:06:50.493Z,4.20
2018-05-10T19:09:19.021Z,4.73
2018-05-10T19:11:47.550Z,4.23
2018-05-10T19:14:19.712Z,4.83
2018-05-10T19:16:51.510Z,5.30
2018-05-10T19:19:20.868Z,4.97
2018-05-10T19:21:49.410Z,5.50
2018-05-10T19:24:17.973Z,5.80
2018-05-10T19:26:46.587Z,5.17
2018-05-10T19:29:15.131Z,6.63
2018-05-10T19:31:43.738Z,5.60
2018-05-10T19:34:12.414Z,5.73
2018-05-10T19:36:41.549Z,6.70
2018-05-10T19:39:12.861Z,5.80
2018-05-10T19:41:42.950Z,6.30
2018-05-10T19:44:11.521Z,5.53
2018-05-10T19:46:40.010Z,6.00
2018-05-10T19:49:08.604Z,6.03
2018-05-10T19:51:38.953Z,6.33
2018-05-10T19:54:07.516Z,5.73
2018-05-10T19:56:37.017Z,5.97
2018-05-10T19:59:12.765Z,6.23
2018-05-10T20:01:41.339Z,5.60
2018-05-10T20:04:09.873Z,6.03
2018-05-10T20:06:42.465Z,5.83
2018-05-10T20:09:11.825Z,6.70
2018-05-10T20:11:40.290Z,6.63
2018-05-10T20:14:09.454Z,6.30
2018-05-10T20:16:37.999Z,6.47
2018-05-10T20:19:06.210Z,5.53
2018-05-10T20:21:34.745Z,5.83
2018-05-10T20:24:03.815Z,6.23
2018-05-10T20:26:32.429Z,6.80
2018-05-10T20:29:00.740Z,6.00
2018-05-10T20:31:29.270Z,6.17
2018-05-10T20:33:59.072Z,5.50
2018-05-10T20:36:27.680Z,5.97
2018-05-10T20:38:56.235Z,6.20
2018-05-10T20:41:24.847Z,7.00
2018-05-10T20:43:53.362Z,6.73
2018-05-10T20:46:22.653Z,5.80
2018-05-10T20:48:51.240Z,6.67
2018-05-10T20:51:19.776Z,6.27
2018-05-10T20:53:48.284Z,7.07
2018-05-10T20:56:18.797Z,6.67
2018-05-10T20:58:47.354Z,7.13
2018-05-10T21:01:18.036Z,7.07
2018-05-10T21:03:49.983Z,6.50
2018-05-10T21:06:18.506Z,6.50
2018-05-10T21:08:47.954Z,6.90
2018-05-10T21:11:18.219Z,6.67
2018-05-10T21:13:47.531Z,6.60
2018-05-10T21:16:16.069Z,6.70
2018-05-10T21:18:45.395Z,6.40
2018-05-10T21:21:14.483Z,6.10
2018-05-10T21:23:43.006Z,5.63
2018-05-10T21:26:12.457Z,6.27
2018-05-10T21:28:41.831Z,5.73
2018-05-10T21:33:44.969Z,6.57
2018-05-10T21:36:13.502Z,6.90
2018-05-10T21:38:42.062Z,6.20
2018-05-10T21:41:11.434Z,6.10
2018-05-10T21:43:39.932Z,5.73
2018-05-10T21:46:08.452Z,5.70
2018-05-10T21:48:37.013Z,5.80
2018-05-10T21:51:05.559Z,5.20
2018-05-10T21:53:34.079Z,5.57
2018-05-10T21:56:02.588Z,5.67
2018-05-10T21:58:31.116Z,5.20
2018-05-10T22:01:00.126Z,5.90
2018-05-10T22:03:28.649Z,5.53
2018-05-10T22:05:56.863Z,5.33
2018-05-10T22:08:26.126Z,5.67
2018-05-10T22:10:54.777Z,4.90
2018-05-10T22:13:39.216Z,5.73
2018-05-10T22:16:07.750Z,6.10
2018-05-10T22:18:36.306Z,5.83
2018-05-10T22:21:04.887Z,4.93
2018-05-10T22:23:34.677Z,5.67
2018-05-10T22:26:03.232Z,5.67
2018-05-10T22:28:31.765Z,4.83
2018-05-10T22:31:00.314Z,5.47
2018-05-10T22:33:31.465Z,6.40
2018-05-10T22:36:02.297Z,4.70
2018-05-10T22:38:31.575Z,5.43
2018-05-10T22:41:00.160Z,5.40
2018-05-10T22:43:28.734Z,6.20
2018-05-10T22:45:57.271Z,5.57
2018-05-10T22:48:28.945Z,6.20
2018-05-10T22:51:05.882Z,5.80
2018-05-10T22:53:34.416Z,5.83
2018-05-10T22:56:02.994Z,6.07
2018-05-10T22:58:33.213Z,6.23
2018-05-10T23:01:02.549Z,5.83
2018-05-10T23:03:36.894Z,6.00
2018-05-10T23:06:06.155Z,6.20
2018-05-10T23:08:35.492Z,6.30
2018-05-10T23:11:04.692Z,5.83
2018-05-10T23:13:34.843Z,6.70
2018-05-10T23:16:03.271Z,6.80
2018-05-10T23:18:32.460Z,5.97
2018-05-10T23:21:00.915Z,5.47
2018-05-10T23:23:29.346Z,5.20
2018-05-10T23:25:57.776Z,5.33
2018-05-10T23:28:26.212Z,5.13
2018-05-10T23:30:54.646Z,6.43
2018-05-10T23:33:23.082Z,4.50
2018-05-10T23:35:51.521Z,5.33
2018-05-10T23:38:20.753Z,5.80
2018-05-10T23:40:49.181Z,6.27
2018-05-10T23:43:17.643Z,5.83
2018-05-10T23:45:46.850Z,5.87
2018-05-10T23:48:15.282Z,5.53
2018-05-10T23:50:43.721Z,5.57
2018-05-10T23:53:12.925Z,5.47
2018-05-10T23:55:42.122Z,5.77
2018-05-10T23:58:11.327Z,5.20
